• Join FlightAware (Why Join?)
  • Login
  • US Flag 
10:31PM EST


 

Airport Tracker/Info


-or-


 

Live Flight TrackerFlight Track Log ✈ N1944E ✈ 15-Aug-2013 ✈ KSLC - KJAC

Flight Track Log - Related Links

Times and Time Zones

All times are in EDT time to prevent confusion due to time zone crossing. See the N1944E flight status page for this flight to view local times or setup timezone preferences in your user account.

Time Position Orientation Groundspeed Altitude Reporting Facility
EDT Latitude Longitude Course Direction KTS MPH feet Rate Location/Type
07:13PM 40.7933 -111.9781 357° North 98 113 4,700  Level Salt Lake Center
07:14PM 40.8283 -111.9806 357° North 124 143 5,500 660 Climbing Salt Lake Center
07:15PM 40.8622 -112.0000 337° Northwest 136 157 6,100 600 Climbing Salt Lake Center
07:16PM 40.8933 -112.0264 327° Northwest 143 165 6,700 600 Climbing Salt Lake Center
07:17PM 40.9269 -112.0547 328° Northwest 145 167 7,300 540 Climbing Salt Lake Center
07:18PM 40.9428 -112.0706 323° Northwest 147 169 7,600 600 Climbing Salt Lake Center
07:19PM 40.9689 -112.0944 325° Northwest 150 173 8,100 660 Climbing Salt Lake Center
07:19PM 41.0006 -112.1233 325° Northwest 151 174 8,700 600 Climbing Salt Lake Center
07:20PM 41.0394 -112.1358 346° North 162 186 9,300 600 Climbing Salt Lake Center
07:21PM 41.0578 -112.1392 352° North 161 185 9,600 420 Climbing Salt Lake Center
07:22PM 41.1033 -112.1461 353° North 165 190 10,000 180 Climbing Salt Lake Center
07:23PM 41.1578 -112.1550 353° North 194 223 10,000 360 Level Salt Lake Center
07:24PM 41.2192 -112.1628 355° North 183 211 10,800 600 Climbing Salt Lake Center
07:25PM 41.2578 -112.1264 35° Northeast 172 198 11,300 540 Climbing Salt Lake Center
07:26PM 41.3008 -112.0989 26° Northeast 173 199 12,000 600 Climbing Salt Lake Center
07:27PM 41.3439 -112.0717 25° Northeast 171 197 12,600 600 Climbing Salt Lake Center
07:28PM 41.3883 -112.0458 24° Northeast 173 199 13,300 660 Climbing Salt Lake Center
07:29PM 41.4333 -112.0206 23° Northeast 175 201 14,000 660 Climbing Salt Lake Center
07:30PM 41.4889 -111.9906 22° Northeast 181 208 14,700 660 Climbing Salt Lake Center
07:31PM 41.5367 -111.9683 19° North 183 211 15,400 660 Climbing Salt Lake Center
07:32PM 41.5844 -111.9431 22° Northeast 184 212 16,100 660 Climbing Salt Lake Center
07:33PM 41.6286 -111.9136 26° Northeast 177 204 16,800 420 Climbing Salt Lake Center
07:34PM 41.6747 -111.8847 25° Northeast 185 213 17,000 60 Climbing Salt Lake Center
07:35PM 41.7264 -111.8528 25° Northeast 202 232 17,000  Level Salt Lake Center
07:36PM 41.7783 -111.8247 22° Northeast 203 234 17,000  Level Salt Lake Center
07:38PM 41.8403 -111.7906 22° Northeast 201 231 17,000  Level Salt Lake Center
07:39PM 41.8931 -111.7606 23° Northeast 204 235 17,000  Level Salt Lake Center
07:40PM 41.9469 -111.7292 23° Northeast 211 243 17,000  Level Salt Lake Center
07:41PM 41.9986 -111.6983 24° Northeast 206 237 17,000  Level Salt Lake Center
07:42PM 42.0500 -111.6653 26° Northeast 206 237 17,000  Level Salt Lake Center
07:43PM 42.1019 -111.6319 25° Northeast 206 237 17,000 -120 Level Salt Lake Center
07:44PM 42.1678 -111.5947 23° Northeast 214 246 16,800 -120 Descending Salt Lake Center
07:45PM 42.2206 -111.5639 23° Northeast 210 242 16,800  Level Salt Lake Center
07:46PM 42.2725 -111.5342 23° Northeast 203 234 16,900  Climbing Salt Lake Center
07:47PM 42.3253 -111.5056 22° Northeast 204 235 16,900 -60 Level Salt Lake Center
07:48PM 42.3781 -111.4750 23° Northeast 206 237 16,800  Descending Salt Lake Center
07:49PM 42.4397 -111.4381 24° Northeast 202 232 16,900  Climbing Salt Lake Center
07:50PM 42.4906 -111.4114 21° North 198 228 16,900 -60 Level Salt Lake Center
07:51PM 42.5406 -111.3817 24° Northeast 197 227 16,800 -60 Descending Salt Lake Center
07:52PM 42.5894 -111.3494 26° Northeast 197 227 16,800  Level Salt Lake Center
07:53PM 42.6397 -111.3192 24° Northeast 197 227 16,800  Level Salt Lake Center
07:54PM 42.6886 -111.2897 24° Northeast 192 221 16,900  Climbing Salt Lake Center
07:55PM 42.7414 -111.2544 26° Northeast 203 234 16,900  Level Salt Lake Center
07:56PM 42.8017 -111.2203 23° Northeast 193 222 16,900  Level Salt Lake Center
07:57PM 42.8522 -111.1908 23° Northeast 198 228 16,900  Level Salt Lake Center
07:58PM 42.9019 -111.1597 25° Northeast 198 228 16,900 -60 Level Salt Lake Center
07:59PM 42.9519 -111.1278 25° Northeast 198 228 16,800 60 Descending Salt Lake Center
08:00PM 43.0031 -111.0989 22° Northeast 200 230 17,100 120 Climbing Salt Lake Center
08:01PM 43.0561 -111.0667 24° Northeast 208 239 17,100  Level Salt Lake Center
08:02PM 43.1089 -111.0342 24° Northeast 207 238 17,100  Level Salt Lake Center
08:03PM 43.1697 -110.9953 25° Northeast 203 234 17,100  Level Salt Lake Center
08:04PM 43.2214 -110.9719 18° North 199 229 17,100 -60 Level Salt Lake Center
08:05PM 43.2697 -110.9456 22° Northeast 189 217 17,000  Descending Salt Lake Center
08:06PM 43.3139 -110.9164 26° Northeast 180 207 17,100  Climbing Salt Lake Center
08:08PM 43.3572 -110.8914 23° Northeast 170 196 17,000 -600 Descending Salt Lake Center
08:09PM 43.4006 -110.8467 37° Northeast 200 230 15,900 -1,020 Descending Salt Lake Center
08:10PM 43.4572 -110.7828 39° Northeast 218 251 15,000 -780 Descending Salt Lake Center
08:11PM 43.5008 -110.7458 32° Northeast 192 221 14,300 -780 Descending Salt Lake Center
08:12PM 43.5458 -110.7239 19° North 177 204 13,500 -1,020 Descending Salt Lake Center
08:13PM 43.5817 -110.7031 23° Northeast 154 177 12,200 -1,260 Descending Salt Lake Center
08:14PM 43.5722 -110.6672 110° East 158 182 10,900 -1,500 Descending Salt Lake Center
08:15PM 43.5756 -110.7169 275° West 148 170 9,100 -1,380 Descending Salt Lake Center
08:16PM 43.6092 -110.7050 14° North 137 158 8,100 -1,020 Descending Salt Lake Center
08:17PM 43.6325 -110.7208 334° Northwest 127 146 7,000 -1,080 Descending Salt Lake Center